createdAt,value
2024-04-05T00:03:48.146Z,9.98
2024-04-05T00:07:49.935Z,9.99
2024-04-05T00:11:51.808Z,10.00
2024-04-05T00:15:53.585Z,10.00
2024-04-05T00:19:58.051Z,10.01
2024-04-05T00:23:59.907Z,10.03
2024-04-05T00:28:01.669Z,10.03
2024-04-05T00:32:03.422Z,10.06
2024-04-05T00:36:05.280Z,10.07
2024-04-05T00:40:07.067Z,10.08
2024-04-05T00:44:01.878Z,10.10
2024-04-05T00:48:03.687Z,10.11
2024-04-05T00:52:05.723Z,10.12
2024-04-05T00:56:07.592Z,10.12
2024-04-05T01:00:09.766Z,10.13
2024-04-05T01:04:11.627Z,10.13
2024-04-05T01:08:13.399Z,10.14
2024-04-05T01:12:15.268Z,10.14
2024-04-05T01:16:17.054Z,10.14
2024-04-05T01:20:11.651Z,10.15
2024-04-05T01:24:13.430Z,10.15
2024-04-05T01:28:15.169Z,10.16
2024-04-05T01:32:17.021Z,10.17
2024-04-05T01:36:17.748Z,10.16
2024-04-05T01:40:19.532Z,10.17
2024-04-05T01:44:21.341Z,10.17
2024-04-05T01:48:25.785Z,10.17
2024-04-05T01:52:20.339Z,10.17
2024-04-05T01:56:14.935Z,10.17
2024-04-05T02:00:17.160Z,10.17
2024-04-05T02:04:18.942Z,10.16
2024-04-05T02:08:08.847Z,10.16
2024-04-05T02:12:00.492Z,10.15
2024-04-05T02:16:02.263Z,10.15
2024-04-05T02:19:27.106Z,10.15
2024-04-05T02:23:28.845Z,10.14
2024-04-05T02:27:26.941Z,10.14
2024-04-05T02:31:29.179Z,10.13
2024-04-05T02:35:31.022Z,10.13
2024-04-05T02:39:17.374Z,10.14
2024-04-05T02:43:19.292Z,10.14
2024-04-05T02:47:18.419Z,10.15
2024-04-05T02:51:20.327Z,10.15
2024-04-05T02:55:21.874Z,10.16
2024-04-05T02:59:23.638Z,10.17
2024-04-05T03:03:25.450Z,10.17
2024-04-05T03:07:27.662Z,10.18
2024-04-05T03:11:29.203Z,10.19
2024-04-05T03:15:33.872Z,10.20
2024-04-05T03:19:28.397Z,10.22
2024-04-05T03:23:20.337Z,10.24
2024-04-05T03:26:47.644Z,10.26
2024-04-05T03:30:42.226Z,10.26
2024-04-05T03:34:42.775Z,10.28
2024-04-05T03:38:09.583Z,10.29
2024-04-05T03:41:51.043Z,10.30
2024-04-05T03:45:43.823Z,10.30
2024-04-05T03:49:45.402Z,10.31
2024-04-05T03:53:47.264Z,10.33
2024-04-05T03:57:48.874Z,10.34
2024-04-05T04:01:50.722Z,10.36
2024-04-05T04:05:46.257Z,10.37
2024-04-05T04:09:47.519Z,10.37
2024-04-05T04:13:49.447Z,10.39
2024-04-05T04:17:54.150Z,10.40
2024-04-05T04:21:45.639Z,10.40
2024-04-05T04:25:04.206Z,10.42
2024-04-05T04:28:58.723Z,10.42
2024-04-05T04:33:00.614Z,10.44
2024-04-05T04:37:00.286Z,10.44
2024-04-05T04:41:02.128Z,10.46
2024-04-05T04:45:04.387Z,10.47
2024-04-05T04:49:04.814Z,10.48
2024-04-05T04:53:05.466Z,10.48
2024-04-05T04:56:48.215Z,10.47
2024-04-05T05:00:17.142Z,10.47
2024-04-05T05:03:40.430Z,10.45
2024-04-05T05:07:08.358Z,10.44
2024-04-05T05:10:54.316Z,10.43
2024-04-05T05:14:18.871Z,10.42
2024-04-05T05:18:13.581Z,10.42
2024-04-05T05:22:15.538Z,10.41
2024-04-05T05:26:17.310Z,10.42
2024-04-05T05:30:18.341Z,10.42
2024-04-05T05:33:33.978Z,10.44
2024-04-05T05:37:10.469Z,10.44
2024-04-05T05:41:12.281Z,10.43
2024-04-05T05:45:05.453Z,10.43
2024-04-05T05:48:52.719Z,10.44
2024-04-05T05:52:22.776Z,10.46
2024-04-05T05:55:50.311Z,10.48
2024-04-05T05:59:39.960Z,10.51
2024-04-05T06:03:24.626Z,10.55
2024-04-05T06:07:17.566Z,10.63
2024-04-05T06:11:11.064Z,10.71
2024-04-05T06:14:47.324Z,10.81
2024-04-05T06:18:49.600Z,10.92
2024-04-05T06:22:51.649Z,11.06
2024-04-05T06:26:39.155Z,11.22
2024-04-05T06:30:41.047Z,11.34
2024-04-05T06:33:52.124Z,11.42
2024-04-05T06:37:18.274Z,11.45
2024-04-05T06:40:44.391Z,11.48
2024-04-05T06:44:45.644Z,11.52
2024-04-05T06:48:46.297Z,11.55
2024-04-05T06:52:33.198Z,11.56
2024-04-05T06:56:35.073Z,11.56
2024-04-05T07:00:36.900Z,11.55
2024-04-05T07:04:30.556Z,11.61
2024-04-05T07:08:32.354Z,11.66
2024-04-05T07:12:24.320Z,11.74
2024-04-05T07:16:17.260Z,11.83
2024-04-05T07:20:17.950Z,11.97
2024-04-05T07:24:09.189Z,12.10
2024-04-05T07:28:10.980Z,12.22
2024-04-05T07:31:53.683Z,12.36
2024-04-05T07:35:55.592Z,12.51
2024-04-05T07:39:42.469Z,12.70
2024-04-05T07:43:24.553Z,12.83
2024-04-05T07:47:19.976Z,12.96
2024-04-05T07:50:55.162Z,13.11
2024-04-05T07:54:57.723Z,13.26
2024-04-05T07:58:49.860Z,13.41
2024-04-05T08:02:51.694Z,13.57
2024-04-05T08:06:09.488Z,13.78
2024-04-05T08:09:35.087Z,13.92
2024-04-05T08:13:31.445Z,14.03
2024-04-05T08:17:33.257Z,14.08
2024-04-05T08:21:35.055Z,14.17
2024-04-05T08:25:39.798Z,14.26
2024-04-05T08:29:35.327Z,14.31
2024-04-05T08:33:17.204Z,14.39
2024-04-05T08:36:44.978Z,14.50
2024-04-05T08:40:47.167Z,14.70
2024-04-05T08:44:49.596Z,14.85
2024-04-05T08:48:42.140Z,15.02
2024-04-05T08:52:44.057Z,15.15
2024-04-05T08:56:29.643Z,15.39
2024-04-05T09:00:26.649Z,15.66
2024-04-05T09:04:21.353Z,15.84
2024-04-05T09:08:23.217Z,15.93
2024-04-05T09:11:59.120Z,16.08
2024-04-05T09:15:50.130Z,16.25
2024-04-05T09:19:42.955Z,16.42
2024-04-05T09:23:46.895Z,16.54
2024-04-05T09:27:30.832Z,16.57
2024-04-05T09:31:23.705Z,16.52
2024-04-05T09:34:43.573Z,16.47
2024-04-05T09:38:28.596Z,16.50
2024-04-05T09:42:21.028Z,16.58
2024-04-05T09:46:22.939Z,16.60
2024-04-05T09:50:24.729Z,16.61
2024-04-05T09:53:36.558Z,16.66
2024-04-05T09:57:17.031Z,16.54
2024-04-05T10:01:18.882Z,16.36
2024-04-05T10:04:56.058Z,16.23
2024-04-05T10:08:57.864Z,16.08
2024-04-05T10:12:59.744Z,15.96
2024-04-05T10:16:39.816Z,15.83
2024-04-05T10:20:06.740Z,15.73
2024-04-05T10:23:17.907Z,15.68
2024-04-05T10:26:50.403Z,15.66
2024-04-05T10:30:33.504Z,15.66
2024-04-05T10:34:35.391Z,15.69
2024-04-05T10:38:29.384Z,15.74
2024-04-05T10:42:22.753Z,15.82
2024-04-05T10:46:25.594Z,16.00
2024-04-05T10:50:20.133Z,16.24
2024-04-05T10:54:21.910Z,16.40
2024-04-05T10:58:22.422Z,16.53
2024-04-05T11:01:52.444Z,16.58
2024-04-05T11:05:40.035Z,16.72
2024-04-05T11:09:27.346Z,16.92
2024-04-05T11:12:54.269Z,17.12
2024-04-05T11:16:47.443Z,17.24
2024-04-05T11:20:52.178Z,17.38
2024-04-05T11:24:37.307Z,17.49
2024-04-05T11:28:22.840Z,17.51
2024-04-05T11:32:24.533Z,17.53
2024-04-05T11:36:17.980Z,17.63
2024-04-05T11:39:52.442Z,17.77
2024-04-05T11:43:45.994Z,17.89
2024-04-05T11:47:08.582Z,18.04
2024-04-05T11:50:45.809Z,18.27
2024-04-05T11:54:47.433Z,18.53
2024-04-05T11:58:49.214Z,18.57
2024-04-05T12:02:23.369Z,18.61
2024-04-05T12:05:53.482Z,18.65
2024-04-05T12:09:11.128Z,18.69
2024-04-05T12:12:45.789Z,18.75
2024-04-05T12:16:23.212Z,18.76
2024-04-05T12:19:38.214Z,18.70
2024-04-05T12:23:00.949Z,18.52
2024-04-05T12:27:05.175Z,18.33
2024-04-05T12:30:16.186Z,18.09
2024-04-05T12:34:16.403Z,17.95
2024-04-05T12:37:54.727Z,17.77
2024-04-05T12:41:17.236Z,17.68
2024-04-05T12:44:31.284Z,17.72
2024-04-05T12:48:15.604Z,17.87
2024-04-05T12:51:52.892Z,18.08
2024-04-05T12:55:23.902Z,18.23
2024-04-05T12:59:16.121Z,18.29
2024-04-05T13:03:03.149Z,18.32
2024-04-05T13:07:08.059Z,18.38
2024-04-05T13:11:09.857Z,18.33
2024-04-05T13:15:10.278Z,18.25
2024-04-05T13:19:12.080Z,18.20
2024-04-05T13:23:13.937Z,18.21
2024-04-05T13:27:15.753Z,18.19
2024-04-05T13:31:10.808Z,18.09
2024-04-05T13:34:55.286Z,18.00
2024-04-05T13:38:57.282Z,17.97
2024-04-05T13:42:52.569Z,17.95
2024-04-05T13:46:54.445Z,17.98
2024-04-05T13:50:18.478Z,18.18
2024-04-05T13:54:20.771Z,18.38
2024-04-05T13:58:09.120Z,18.62
2024-04-05T14:02:11.031Z,18.80
2024-04-05T14:05:47.751Z,18.85
2024-04-05T14:09:39.621Z,18.77
2024-04-05T14:13:41.381Z,18.72
2024-04-05T14:17:43.181Z,18.59
2024-04-05T14:21:44.996Z,18.38
2024-04-05T14:25:39.705Z,18.20
2024-04-05T14:29:41.465Z,18.04
2024-04-05T14:33:38.345Z,17.99
2024-04-05T14:37:13.081Z,17.97
2024-04-05T14:41:09.091Z,18.03
2024-04-05T14:45:10.959Z,18.07
2024-04-05T14:48:53.611Z,18.10
2024-04-05T14:52:55.107Z,18.17
2024-04-05T14:56:36.643Z,18.19
2024-04-05T15:00:29.709Z,18.15
2024-04-05T15:04:31.531Z,18.10
2024-04-05T15:07:48.822Z,17.95
2024-04-05T15:11:40.149Z,17.79
2024-04-05T15:15:38.982Z,17.59
2024-04-05T15:19:13.480Z,17.42
2024-04-05T15:22:46.295Z,17.27
2024-04-05T15:26:52.671Z,17.13
2024-04-05T15:30:47.648Z,16.98
2024-04-05T15:34:49.436Z,16.84
2024-04-05T15:38:51.283Z,16.74
2024-04-05T15:42:44.373Z,16.69
2024-04-05T15:46:35.020Z,16.67
2024-04-05T15:49:41.824Z,16.65
2024-04-05T15:53:23.240Z,16.66
2024-04-05T15:57:25.117Z,16.66
2024-04-05T16:01:27.371Z,16.65
2024-04-05T16:05:29.225Z,16.62
2024-04-05T16:09:23.834Z,16.58
2024-04-05T16:13:25.703Z,16.53
2024-04-05T16:17:28.004Z,16.48
2024-04-05T16:21:30.879Z,16.43
2024-04-05T16:24:44.520Z,16.36
2024-04-05T16:28:28.567Z,16.29
2024-04-05T16:31:50.260Z,16.22
2024-04-05T16:35:11.581Z,16.14
2024-04-05T16:38:44.448Z,16.06
2024-04-05T16:42:46.285Z,15.97
2024-04-05T16:46:43.335Z,15.87
2024-04-05T16:50:27.563Z,15.75
2024-04-05T16:54:18.757Z,15.65
2024-04-05T16:58:20.549Z,15.55
2024-04-05T17:02:15.595Z,15.41
2024-04-05T17:05:58.820Z,15.30
2024-04-05T17:10:00.215Z,15.18
2024-04-05T17:13:50.625Z,15.03
2024-04-05T17:17:41.963Z,14.90
2024-04-05T17:21:42.903Z,14.76
2024-04-05T17:25:44.799Z,14.61
2024-04-05T17:29:46.614Z,14.45
2024-04-05T17:33:41.654Z,14.31
2024-04-05T17:37:43.313Z,14.15
2024-04-05T17:41:45.052Z,14.01
2024-04-05T17:45:47.149Z,13.85
2024-04-05T17:49:41.713Z,13.69
2024-04-05T17:53:44.614Z,13.52
2024-04-05T17:57:46.407Z,13.33
2024-04-05T18:01:48.264Z,13.16
2024-04-05T18:05:42.880Z,12.99
2024-04-05T18:09:37.319Z,12.83
2024-04-05T18:13:39.083Z,12.68
2024-04-05T18:17:24.361Z,12.53
2024-04-05T18:21:26.160Z,12.39
2024-04-05T18:25:27.960Z,12.26
2024-04-05T18:29:22.960Z,12.10
2024-04-05T18:33:17.383Z,11.97
2024-04-05T18:37:05.257Z,11.84
2024-04-05T18:40:57.580Z,11.71
2024-04-05T18:44:59.351Z,11.57
2024-04-05T18:48:54.406Z,11.44
2024-04-05T18:52:54.651Z,11.31
2024-04-05T18:56:55.472Z,11.18
2024-04-05T19:38:49.186Z,10.33
2024-04-05T19:42:17.454Z,10.24
2024-04-05T19:46:02.884Z,10.15
2024-04-05T19:49:07.784Z,10.03
2024-04-05T19:52:58.816Z,9.95
2024-04-05T19:57:00.601Z,9.85
2024-04-05T20:00:05.165Z,9.77
2024-04-05T20:03:57.618Z,9.69
2024-04-05T20:07:39.491Z,9.60
2024-04-05T20:11:41.090Z,9.50
2024-04-05T20:15:32.921Z,9.40
2024-04-05T20:18:52.855Z,9.30
2024-04-05T20:22:36.750Z,9.21
2024-04-05T20:26:38.504Z,9.12
2024-04-05T20:30:38.781Z,9.02
2024-04-05T20:34:40.609Z,8.92
2024-04-05T20:38:35.391Z,8.83
2024-04-05T20:42:37.189Z,8.74
2024-04-05T20:46:39.145Z,8.67
2024-04-05T20:50:15.226Z,8.61
2024-04-05T20:53:53.598Z,8.56
2024-04-05T20:57:10.856Z,8.52
2024-04-05T21:00:38.693Z,8.46
2024-04-05T21:04:40.310Z,8.43
2024-04-05T21:07:51.480Z,8.38
2024-04-05T21:11:29.738Z,8.33
2024-04-05T21:15:30.298Z,8.28
2024-04-05T21:18:41.368Z,8.21
2024-04-05T21:22:42.638Z,8.16
2024-04-05T21:26:44.062Z,8.09
2024-04-05T21:30:45.917Z,8.03
2024-04-05T21:34:48.162Z,7.96
2024-04-05T21:38:50.090Z,7.91
2024-04-05T21:42:52.174Z,7.86
2024-04-05T21:46:47.306Z,7.81
2024-04-05T21:54:54.393Z,7.71
2024-04-05T21:58:55.957Z,7.65
2024-04-05T22:02:52.058Z,7.61
2024-04-05T22:06:53.623Z,7.56
2024-04-05T22:10:29.708Z,7.53
2024-04-05T22:14:24.986Z,7.51
2024-04-05T22:18:27.083Z,7.48
2024-04-05T22:22:28.875Z,7.45
2024-04-05T22:26:31.266Z,7.43
2024-04-05T22:30:33.078Z,7.41
2024-04-05T22:34:34.743Z,7.38
2024-04-05T22:38:36.490Z,7.35
2024-04-05T22:42:38.265Z,7.31
2024-04-05T22:46:39.934Z,7.28
2024-04-05T22:50:42.252Z,7.26
2024-04-05T22:54:44.069Z,7.23
2024-04-05T22:58:45.834Z,7.21
2024-04-05T23:02:39.812Z,7.19
2024-04-05T23:06:31.911Z,7.17
2024-04-05T23:10:35.144Z,7.15
2024-04-05T23:14:36.842Z,7.13
2024-04-05T23:18:19.065Z,7.10
2024-04-05T23:22:21.117Z,7.08
2024-04-05T23:26:23.102Z,7.07
2024-04-05T23:30:28.016Z,7.05
2024-04-05T23:34:29.871Z,7.05
2024-04-05T23:38:31.734Z,7.05
2024-04-05T23:42:32.489Z,7.08
2024-04-05T23:46:35.094Z,7.11
2024-04-05T23:50:36.947Z,7.15
2024-04-05T23:54:33.943Z,7.18
2024-04-05T23:58:36.230Z,7.20
